createdAt,value
2022-12-13T00:00:14.705Z,100518.84
2022-12-13T00:03:21.599Z,100498.84
2022-12-13T00:06:26.876Z,100488.03
2022-12-13T00:09:32.058Z,100503.72
2022-12-13T00:12:37.040Z,100493.88
2022-12-13T00:15:41.601Z,100513.09
2022-12-13T00:18:52.149Z,100498.78
2022-12-13T00:21:57.628Z,100503.09
2022-12-13T00:25:02.640Z,100469.56
2022-12-13T00:28:08.932Z,100477.88
2022-12-13T00:34:42.994Z,100470.91
2022-12-13T00:37:48.277Z,100474.47
2022-12-13T00:40:54.139Z,100466.88
2022-12-13T00:43:59.897Z,100456.16
2022-12-13T00:47:05.388Z,100468.53
2022-12-13T00:50:23.155Z,100470.81
2022-12-13T00:53:42.600Z,100460.59
2022-12-13T00:56:47.962Z,100473.09
2022-12-13T00:59:53.087Z,100460.56
2022-12-13T01:02:59.619Z,100476.44
2022-12-13T01:06:15.832Z,100473.59
2022-12-13T01:09:23.431Z,100449.16
2022-12-13T01:12:28.497Z,100457.38
2022-12-13T01:15:34.270Z,100473.16
2022-12-13T01:18:40.584Z,100473.97
2022-12-13T01:21:47.371Z,100469.75
2022-12-13T01:24:52.404Z,100461.56
2022-12-13T01:28:00.175Z,100458.03
2022-12-13T01:31:08.560Z,100454.84
2022-12-13T01:34:14.426Z,100479.94
2022-12-13T01:37:26.202Z,100454.13
2022-12-13T01:40:31.446Z,100439.03
2022-12-13T01:43:56.182Z,100441.47
2022-12-13T01:47:01.875Z,100432.47
2022-12-13T01:50:12.927Z,100444.56
2022-12-13T01:53:22.589Z,100438.84
2022-12-13T01:56:30.845Z,100433.50
2022-12-13T01:59:36.566Z,100421.28
2022-12-13T02:02:44.862Z,100429.31
2022-12-13T02:05:56.276Z,100417.91
2022-12-13T02:09:09.170Z,100415.59
2022-12-13T02:12:14.978Z,100398.84
2022-12-13T02:15:20.711Z,100405.38
2022-12-13T02:18:42.429Z,100405.50
2022-12-13T02:21:53.160Z,100388.84
2022-12-13T02:25:10.053Z,100411.16
2022-12-13T02:28:31.705Z,100391.78
2022-12-13T02:31:44.431Z,100383.53
2022-12-13T02:34:53.880Z,100388.63
2022-12-13T02:38:03.438Z,100381.03
2022-12-13T02:41:12.978Z,100404.16
2022-12-13T02:44:22.974Z,100391.47
2022-12-13T02:47:35.951Z,100381.19
2022-12-13T02:50:41.632Z,100373.78
2022-12-13T02:53:47.294Z,100372.91
2022-12-13T02:56:56.483Z,100365.50
2022-12-13T03:00:05.499Z,100371.06
2022-12-13T03:03:24.825Z,100382.53
2022-12-13T03:06:37.690Z,100359.28
2022-12-13T03:09:50.717Z,100349.81
2022-12-13T03:13:18.223Z,100347.56
2022-12-13T03:16:34.316Z,100361.75
2022-12-13T03:19:41.187Z,100371.03
2022-12-13T03:22:46.788Z,100346.63
2022-12-13T03:25:53.990Z,100373.97
2022-12-13T03:28:59.039Z,100359.34
2022-12-13T03:32:07.237Z,100364.28
2022-12-13T03:35:21.963Z,100355.78
2022-12-13T03:38:27.912Z,100358.31
2022-12-13T03:41:33.927Z,100352.75
2022-12-13T03:44:39.029Z,100363.84
2022-12-13T03:47:45.773Z,100353.50
2022-12-13T03:50:53.986Z,100363.81
2022-12-13T03:54:02.646Z,100361.84
2022-12-13T03:57:08.042Z,100350.69
2022-12-13T04:00:16.496Z,100339.34
2022-12-13T04:03:22.851Z,100350.25
2022-12-13T04:06:32.928Z,100329.88
2022-12-13T04:09:39.443Z,100326.16
2022-12-13T04:13:01.919Z,100338.72
2022-12-13T04:16:07.504Z,100331.22
2022-12-13T04:19:23.183Z,100322.78
2022-12-13T04:22:31.346Z,100331.66
2022-12-13T04:25:36.793Z,100312.44
2022-12-13T04:28:41.462Z,100314.66
2022-12-13T04:31:46.813Z,100290.78
2022-12-13T04:34:52.082Z,100292.16
2022-12-13T04:38:12.111Z,100285.84
2022-12-13T04:41:19.654Z,100296.66
2022-12-13T04:44:28.718Z,100290.78
2022-12-13T04:47:35.127Z,100302.09
2022-12-13T04:50:47.328Z,100291.50
2022-12-13T04:53:54.243Z,100276.44
2022-12-13T04:56:59.390Z,100294.69
2022-12-13T05:00:08.323Z,100287.38
2022-12-13T05:03:14.980Z,100275.50
2022-12-13T05:06:26.763Z,100282.91
2022-12-13T05:09:33.819Z,100285.06
2022-12-13T05:12:38.850Z,100289.13
2022-12-13T05:15:49.424Z,100316.47
2022-12-13T05:18:57.087Z,100276.75
2022-12-13T05:22:05.305Z,100280.63
2022-12-13T05:25:14.683Z,100264.09
2022-12-13T05:28:29.201Z,100272.44
2022-12-13T05:31:36.048Z,100263.28
2022-12-13T05:34:42.159Z,100283.59
2022-12-13T05:37:47.744Z,100292.19
2022-12-13T05:41:05.530Z,100296.13
2022-12-13T05:44:13.614Z,100296.34
2022-12-13T05:47:18.850Z,100269.06
2022-12-13T05:50:32.855Z,100298.44
2022-12-13T05:53:41.558Z,100295.09
2022-12-13T05:56:49.059Z,100305.66
2022-12-13T05:59:54.061Z,100293.31
2022-12-13T06:03:00.890Z,100295.00
2022-12-13T06:06:09.605Z,100301.06
2022-12-13T06:09:14.391Z,100282.31
2022-12-13T06:12:31.474Z,100291.59
2022-12-13T06:16:01.260Z,100280.75
2022-12-13T06:19:09.795Z,100317.28
2022-12-13T06:22:15.822Z,100287.94
2022-12-13T06:25:30.995Z,100281.00
2022-12-13T06:28:42.858Z,100290.16
2022-12-13T06:31:48.623Z,100266.38
2022-12-13T06:34:53.857Z,100281.41
2022-12-13T06:38:03.455Z,100271.84
2022-12-13T06:41:20.629Z,100287.16
2022-12-13T06:44:30.308Z,100273.78
2022-12-13T06:47:35.632Z,100277.84
2022-12-13T06:50:40.583Z,100270.63
2022-12-13T06:53:49.448Z,100268.78
2022-12-13T06:56:55.376Z,100263.88
2022-12-13T07:00:10.155Z,100283.59
2022-12-13T07:03:17.575Z,100266.88
2022-12-13T07:06:25.917Z,100282.06
2022-12-13T07:09:41.306Z,100268.72
2022-12-13T07:12:46.384Z,100271.13
2022-12-13T07:16:01.180Z,100274.47
2022-12-13T07:19:22.878Z,100257.22
2022-12-13T07:22:29.677Z,100258.28
2022-12-13T07:25:40.004Z,100271.53
2022-12-13T07:28:45.099Z,100265.75
2022-12-13T07:31:51.254Z,100261.47
2022-12-13T07:34:56.737Z,100275.66
2022-12-13T07:38:01.742Z,100267.63
2022-12-13T07:41:08.089Z,100284.09
2022-12-13T07:44:13.688Z,100262.75
2022-12-13T07:47:20.091Z,100273.59
2022-12-13T07:50:29.149Z,100271.72
2022-12-13T07:53:46.735Z,100271.00
2022-12-13T07:56:51.740Z,100278.50
2022-12-13T07:59:56.804Z,100273.47
2022-12-13T08:03:04.001Z,100278.66
2022-12-13T08:06:10.752Z,100267.34
2022-12-13T08:09:15.800Z,100278.34
2022-12-13T08:12:22.329Z,100273.38
2022-12-13T08:15:28.172Z,100280.03
2022-12-13T08:18:34.794Z,100276.03
2022-12-13T08:21:54.563Z,100301.16
2022-12-13T08:25:00.407Z,100287.72
2022-12-13T08:28:05.806Z,100285.66
2022-12-13T08:31:14.544Z,100282.06
2022-12-13T08:34:21.065Z,100299.34
2022-12-13T08:37:26.394Z,100286.72
2022-12-13T08:40:31.432Z,100282.88
2022-12-13T08:43:36.867Z,100274.09
2022-12-13T08:46:42.102Z,100278.50
2022-12-13T08:49:50.842Z,100296.81
2022-12-13T08:52:55.981Z,100296.28
2022-12-13T08:56:04.612Z,100293.50
2022-12-13T08:59:10.507Z,100292.94
2022-12-13T09:02:18.762Z,100292.19
2022-12-13T09:05:32.997Z,100293.63
2022-12-13T09:08:40.557Z,100298.19
2022-12-13T09:11:46.297Z,100290.22
2022-12-13T09:14:51.513Z,100289.22
2022-12-13T09:17:57.312Z,100316.41
2022-12-13T09:21:13.897Z,100308.72
2022-12-13T09:24:28.569Z,100315.75
2022-12-13T09:27:41.702Z,100298.94
2022-12-13T09:30:47.230Z,100295.81
2022-12-13T09:33:56.177Z,100315.22
2022-12-13T09:37:03.214Z,100318.47
2022-12-13T09:40:16.058Z,100331.72
2022-12-13T09:43:42.688Z,100323.97
2022-12-13T09:46:49.215Z,100312.81
2022-12-13T09:49:54.616Z,100338.19
2022-12-13T09:53:01.663Z,100339.03
2022-12-13T09:56:10.393Z,100336.53
2022-12-13T09:59:25.584Z,100334.38
2022-12-13T10:02:32.341Z,100318.50
2022-12-13T10:05:41.599Z,100330.91
2022-12-13T10:08:50.152Z,100332.59
2022-12-13T10:12:02.309Z,100327.34
2022-12-13T10:15:08.657Z,100339.19
2022-12-13T10:18:19.720Z,100337.69
2022-12-13T10:21:29.503Z,100339.84
2022-12-13T10:28:10.499Z,100340.97
2022-12-13T10:31:21.042Z,100337.28
2022-12-13T10:34:28.793Z,100331.56
2022-12-13T10:37:34.214Z,100327.47
2022-12-13T10:40:44.075Z,100340.38
2022-12-13T10:44:22.632Z,100323.25
2022-12-13T10:47:27.712Z,100346.84
2022-12-13T10:50:33.528Z,100350.28
2022-12-13T10:53:46.678Z,100328.88
2022-12-13T10:57:00.071Z,100336.19
2022-12-13T11:00:33.556Z,100336.06
2022-12-13T11:03:39.299Z,100340.38
2022-12-13T11:06:46.503Z,100345.16
2022-12-13T11:09:52.703Z,100352.13
2022-12-13T11:13:19.489Z,100352.63
2022-12-13T11:16:28.428Z,100350.72
2022-12-13T11:19:37.821Z,100350.03
2022-12-13T11:22:43.790Z,100342.53
2022-12-13T11:25:57.136Z,100325.69
2022-12-13T11:29:19.061Z,100329.63
2022-12-13T11:32:35.602Z,100338.41
2022-12-13T11:35:50.239Z,100347.53
2022-12-13T11:39:05.621Z,100340.03
2022-12-13T11:42:16.686Z,100340.53
2022-12-13T11:45:26.193Z,100338.91
2022-12-13T11:48:38.474Z,100334.88
2022-12-13T11:51:46.535Z,100338.34
2022-12-13T11:54:56.211Z,100351.59
2022-12-13T11:58:06.143Z,100366.03
2022-12-13T12:01:15.985Z,100361.84
2022-12-13T12:04:28.889Z,100352.47
2022-12-13T12:08:05.231Z,100360.72
2022-12-13T12:11:13.479Z,100363.69
2022-12-13T12:14:23.785Z,100360.81
2022-12-13T12:17:33.621Z,100365.75
2022-12-13T12:20:54.024Z,100362.63
2022-12-13T12:24:09.733Z,100363.50
2022-12-13T12:27:25.016Z,100372.16
2022-12-13T12:30:39.105Z,100385.84
2022-12-13T12:33:52.264Z,100372.50
2022-12-13T12:37:10.068Z,100367.38
2022-12-13T12:41:14.604Z,100363.28
2022-12-13T12:44:19.664Z,100368.94
2022-12-13T12:47:57.881Z,100368.53
2022-12-13T12:51:00.581Z,100361.78
2022-12-13T12:54:20.695Z,100379.66
2022-12-13T12:57:32.892Z,100371.03
2022-12-13T13:00:45.063Z,100373.94
2022-12-13T13:03:52.669Z,100378.91
2022-12-13T13:07:23.032Z,100380.09
2022-12-13T13:10:31.099Z,100372.50
2022-12-13T13:13:46.874Z,100395.03
2022-12-13T13:16:52.235Z,100385.81
2022-12-13T13:20:17.582Z,100380.28
2022-12-13T13:23:39.425Z,100383.19
2022-12-13T13:26:48.632Z,100381.28
2022-12-13T13:29:53.956Z,100392.09
2022-12-13T13:33:00.083Z,100386.19
2022-12-13T13:36:05.807Z,100387.41
2022-12-13T13:39:17.066Z,100395.69
2022-12-13T13:42:24.426Z,100376.94
2022-12-13T13:45:29.444Z,100385.28
2022-12-13T13:48:57.303Z,100392.81
2022-12-13T13:52:27.280Z,100388.94
2022-12-13T13:55:50.922Z,100382.75
2022-12-13T13:59:27.353Z,100400.78
2022-12-13T14:03:32.916Z,100392.78
2022-12-13T14:07:09.549Z,100401.44
2022-12-13T14:10:23.205Z,100395.69
2022-12-13T14:14:22.488Z,100386.50
2022-12-13T14:18:06.682Z,100389.72
2022-12-13T14:21:27.148Z,100396.50
2022-12-13T14:24:43.411Z,100396.50
2022-12-13T14:27:52.133Z,100380.22
2022-12-13T14:30:57.865Z,100395.63
2022-12-13T14:34:05.048Z,100394.13
2022-12-13T14:37:23.352Z,100385.66
2022-12-13T14:40:32.315Z,100391.09
2022-12-13T14:43:37.877Z,100379.03
2022-12-13T14:46:51.127Z,100388.75
2022-12-13T14:49:57.493Z,100375.69
2022-12-13T14:53:04.290Z,100383.25
2022-12-13T14:56:28.483Z,100381.34
2022-12-13T14:59:34.622Z,100377.50
2022-12-13T15:02:39.307Z,100387.00
2022-12-13T15:05:50.513Z,100374.63
2022-12-13T15:08:57.475Z,100379.88
2022-12-13T15:12:14.775Z,100381.22
2022-12-13T15:15:31.650Z,100390.56
2022-12-13T15:18:36.870Z,100375.19
2022-12-13T15:22:01.736Z,100385.53
2022-12-13T15:25:17.375Z,100380.66
2022-12-13T15:28:29.220Z,100369.38
2022-12-13T15:31:34.576Z,100385.88
2022-12-13T15:34:40.242Z,100385.06
2022-12-13T15:37:47.830Z,100399.53
2022-12-13T15:40:54.512Z,100383.28
2022-12-13T15:44:02.500Z,100377.47
2022-12-13T15:47:28.382Z,100383.44
2022-12-13T15:50:36.198Z,100392.44
2022-12-13T15:53:42.086Z,100392.19
2022-12-13T15:57:01.967Z,100390.44
2022-12-13T16:00:17.052Z,100398.25
2022-12-13T16:03:24.811Z,100389.56
2022-12-13T16:06:30.283Z,100377.97
2022-12-13T16:09:38.322Z,100394.53
2022-12-13T16:12:48.158Z,100379.31
2022-12-13T16:16:00.229Z,100385.78
2022-12-13T16:19:17.852Z,100384.13
2022-12-13T16:22:26.286Z,100385.34
2022-12-13T16:25:33.188Z,100399.94
2022-12-13T16:28:42.413Z,100391.09
2022-12-13T16:31:49.719Z,100394.91
2022-12-13T16:34:55.502Z,100401.56
2022-12-13T16:38:09.094Z,100404.91
2022-12-13T16:41:15.758Z,100407.81
2022-12-13T16:44:24.971Z,100410.13
2022-12-13T16:47:41.929Z,100409.00
2022-12-13T16:50:57.681Z,100390.59
2022-12-13T16:54:04.552Z,100392.25
2022-12-13T16:57:09.990Z,100388.97
2022-12-13T17:00:18.206Z,100386.41
2022-12-13T17:03:25.354Z,100385.81
2022-12-13T17:06:30.573Z,100386.94
2022-12-13T17:09:39.673Z,100382.38
2022-12-13T17:12:46.270Z,100379.88
2022-12-13T17:15:59.342Z,100375.81
2022-12-13T17:19:05.282Z,100375.81
2022-12-13T17:22:12.287Z,100362.72
2022-12-13T17:25:17.349Z,100365.94
2022-12-13T17:28:22.362Z,100377.41
2022-12-13T17:31:34.912Z,100377.41
2022-12-13T17:34:40.578Z,100385.47
2022-12-13T17:37:45.547Z,100380.88
2022-12-13T17:40:55.991Z,100360.88
2022-12-13T17:44:01.628Z,100384.06
2022-12-13T17:47:09.382Z,100390.03
2022-12-13T17:50:15.502Z,100374.28
2022-12-13T17:53:20.609Z,100386.88
2022-12-13T17:56:25.598Z,100395.41
2022-12-13T17:59:30.556Z,100399.75
2022-12-13T18:02:38.262Z,100391.16
2022-12-13T18:05:44.564Z,100387.34
2022-12-13T18:08:49.675Z,100387.78
2022-12-13T18:11:54.887Z,100403.81
2022-12-13T18:14:59.986Z,100394.00
2022-12-13T18:18:11.688Z,100392.47
2022-12-13T18:21:18.983Z,100402.16
2022-12-13T18:24:24.255Z,100401.09
2022-12-13T18:27:28.911Z,100403.91
2022-12-13T18:30:34.741Z,100415.31
2022-12-13T18:33:47.163Z,100423.72
2022-12-13T18:36:55.565Z,100426.16
2022-12-13T18:40:07.929Z,100420.63
2022-12-13T18:43:15.756Z,100413.22
2022-12-13T18:46:23.578Z,100416.28
2022-12-13T18:49:34.191Z,100412.78
2022-12-13T18:52:59.119Z,100424.69
2022-12-13T18:56:11.586Z,100420.38
2022-12-13T18:59:25.315Z,100419.78
2022-12-13T19:02:34.610Z,100412.25
2022-12-13T19:05:43.004Z,100414.38
2022-12-13T19:08:57.187Z,100410.75
2022-12-13T19:12:12.569Z,100414.84
2022-12-13T19:18:46.589Z,100432.66
2022-12-13T19:21:54.565Z,100428.78
2022-12-13T19:25:00.581Z,100433.09
2022-12-13T19:28:06.516Z,100431.94
2022-12-13T19:31:14.742Z,100430.53
2022-12-13T19:34:20.500Z,100431.94
2022-12-13T19:37:27.332Z,100433.66
2022-12-13T19:40:32.338Z,100424.44
2022-12-13T19:43:39.405Z,100437.88
2022-12-13T19:46:44.476Z,100442.47
2022-12-13T19:49:49.569Z,100445.25
2022-12-13T19:52:55.812Z,100446.84
2022-12-13T19:56:00.986Z,100447.63
2022-12-13T19:59:06.225Z,100461.97
2022-12-13T20:02:15.518Z,100456.09
2022-12-13T20:05:20.808Z,100447.97
2022-12-13T20:08:27.423Z,100456.09
2022-12-13T20:11:32.627Z,100446.13
2022-12-13T20:14:37.602Z,100449.44
2022-12-13T20:17:43.816Z,100444.59
2022-12-13T20:21:10.613Z,100458.81
2022-12-13T20:24:16.226Z,100451.50
2022-12-13T20:27:21.186Z,100459.06
2022-12-13T20:30:25.830Z,100451.97
2022-12-13T20:33:30.753Z,100456.94
2022-12-13T20:36:37.703Z,100463.69
2022-12-13T20:39:45.279Z,100449.81
2022-12-13T20:42:50.955Z,100458.28
2022-12-13T20:45:55.639Z,100456.22
2022-12-13T20:49:02.819Z,100463.53
2022-12-13T20:52:08.174Z,100459.97
2022-12-13T20:55:21.066Z,100459.97
2022-12-13T20:58:27.509Z,100460.22
2022-12-13T21:01:34.864Z,100455.00
2022-12-13T21:04:40.249Z,100448.72
2022-12-13T21:08:02.763Z,100456.94
2022-12-13T21:11:27.130Z,100458.63
2022-12-13T21:14:33.543Z,100462.56
2022-12-13T21:17:39.502Z,100465.97
2022-12-13T21:20:44.439Z,100450.41
2022-12-13T21:23:49.583Z,100448.53
2022-12-13T21:26:56.612Z,100446.34
2022-12-13T21:30:01.843Z,100452.03
2022-12-13T21:33:06.820Z,100443.09
2022-12-13T21:36:13.176Z,100447.13
2022-12-13T21:39:20.128Z,100459.09
2022-12-13T21:42:27.394Z,100471.38
2022-12-13T21:45:32.675Z,100472.28
2022-12-13T21:48:38.322Z,100466.63
2022-12-13T21:51:47.920Z,100478.34
2022-12-13T21:55:15.139Z,100483.38
2022-12-13T21:58:38.137Z,100480.97
2022-12-13T22:02:06.836Z,100474.97
2022-12-13T22:05:22.082Z,100477.38
2022-12-13T22:08:28.773Z,100477.25
2022-12-13T22:11:35.622Z,100478.03
2022-12-13T22:14:42.535Z,100472.88
2022-12-13T22:17:47.280Z,100459.47
2022-12-13T22:20:58.051Z,100474.13
2022-12-13T22:24:03.360Z,100474.28
2022-12-13T22:27:08.882Z,100476.34
2022-12-13T22:30:18.705Z,100481.84
2022-12-13T22:33:27.090Z,100483.66
2022-12-13T22:36:37.108Z,100481.72
2022-12-13T22:39:42.704Z,100493.66
2022-12-13T22:42:50.733Z,100495.34
2022-12-13T22:46:07.359Z,100498.56
2022-12-13T22:49:13.774Z,100493.31
2022-12-13T22:52:19.489Z,100488.78
2022-12-13T22:55:24.508Z,100493.00
2022-12-13T22:58:32.224Z,100481.56
2022-12-13T23:01:42.531Z,100491.53
2022-12-13T23:04:53.130Z,100494.38
2022-12-13T23:07:58.623Z,100503.13
2022-12-13T23:11:24.434Z,100498.03
2022-12-13T23:14:33.362Z,100488.19
2022-12-13T23:17:40.248Z,100486.75
2022-12-13T23:20:48.549Z,100482.34
2022-12-13T23:23:55.068Z,100488.44
2022-12-13T23:27:00.443Z,100474.28
2022-12-13T23:30:06.613Z,100489.53
2022-12-13T23:33:14.010Z,100488.78
2022-12-13T23:36:20.914Z,100494.94
2022-12-13T23:39:25.975Z,100487.03
2022-12-13T23:42:31.905Z,100480.72
2022-12-13T23:45:37.741Z,100504.44
2022-12-13T23:48:44.776Z,100493.75
2022-12-13T23:51:49.886Z,100483.94
2022-12-13T23:54:55.495Z,100494.97
2022-12-13T23:58:03.573Z,100501.06
